createdAt,value
2019-03-18T00:00:30.395Z,67.41
2019-03-18T00:02:56.789Z,67.60
2019-03-18T00:05:22.628Z,67.54
2019-03-18T00:07:48.463Z,67.28
2019-03-18T00:10:14.312Z,67.07
2019-03-18T00:12:40.129Z,67.21
2019-03-18T00:15:07.925Z,67.26
2019-03-18T00:17:33.828Z,67.54
2019-03-18T00:19:59.671Z,67.58
2019-03-18T00:22:25.658Z,67.76
2019-03-18T00:24:51.528Z,67.77
2019-03-18T00:27:17.450Z,67.83
2019-03-18T00:29:43.336Z,67.86
2019-03-18T00:32:09.168Z,67.53
2019-03-18T00:34:34.990Z,67.82
2019-03-18T00:37:00.880Z,67.25
2019-03-18T00:39:27.211Z,67.65
2019-03-18T00:41:53.114Z,67.71
2019-03-18T00:44:19.085Z,67.58
2019-03-18T00:46:44.907Z,67.59
2019-03-18T00:49:10.775Z,67.66
2019-03-18T00:51:36.624Z,67.75
2019-03-18T00:54:02.548Z,67.59
2019-03-18T00:56:31.274Z,67.80
2019-03-18T00:58:57.121Z,67.79
2019-03-18T01:01:22.941Z,67.73
2019-03-18T01:03:48.830Z,68.18
2019-03-18T01:06:14.786Z,68.86
2019-03-18T01:08:40.627Z,70.07
2019-03-18T01:11:06.841Z,70.92
2019-03-18T01:13:32.684Z,71.78
2019-03-18T01:15:58.552Z,71.89
2019-03-18T01:18:24.428Z,72.18
2019-03-18T01:20:50.280Z,72.06
2019-03-18T01:23:18.017Z,70.99
2019-03-18T01:25:44.141Z,71.39
2019-03-18T01:28:10.081Z,71.50
2019-03-18T01:30:35.964Z,71.58
2019-03-18T01:33:01.977Z,71.94
2019-03-18T01:35:27.905Z,72.31
2019-03-18T01:37:53.759Z,73.01
2019-03-18T01:40:19.916Z,73.07
2019-03-18T01:42:45.774Z,73.41
2019-03-18T01:45:12.206Z,73.70
2019-03-18T01:47:38.531Z,74.23
2019-03-18T01:50:07.593Z,74.57
2019-03-18T01:52:33.548Z,74.11
2019-03-18T01:54:59.408Z,74.04
2019-03-18T01:57:25.258Z,73.85
2019-03-18T01:59:51.210Z,74.08
2019-03-18T02:02:17.273Z,73.30
2019-03-18T02:04:43.129Z,73.51
2019-03-18T02:07:09.127Z,73.96
2019-03-18T02:09:34.962Z,74.05
2019-03-18T02:12:00.895Z,73.63
2019-03-18T02:14:26.780Z,73.67
2019-03-18T02:16:52.625Z,73.41
2019-03-18T02:19:18.466Z,73.50
2019-03-18T02:21:48.202Z,73.69
2019-03-18T02:24:14.030Z,73.66
2019-03-18T02:26:39.872Z,74.39
2019-03-18T02:29:05.770Z,74.04
2019-03-18T02:31:31.710Z,74.45
2019-03-18T02:33:57.569Z,74.26
2019-03-18T02:36:23.484Z,75.42
2019-03-18T02:38:49.323Z,74.19
2019-03-18T02:41:15.437Z,73.18
2019-03-18T02:43:43.290Z,71.87
2019-03-18T02:46:10.880Z,72.37
2019-03-18T02:48:37.136Z,72.06
2019-03-18T02:51:03.128Z,72.94
2019-03-18T02:53:28.960Z,74.31
2019-03-18T02:55:54.769Z,77.10
2019-03-18T02:58:20.656Z,77.08
2019-03-18T03:00:46.609Z,78.11
2019-03-18T03:03:12.439Z,78.45
2019-03-18T03:05:38.277Z,77.98
2019-03-18T03:08:04.238Z,77.96
2019-03-18T03:10:30.293Z,79.18
2019-03-18T03:12:56.222Z,79.44
2019-03-18T03:15:22.048Z,79.81
2019-03-18T03:17:47.996Z,79.78
2019-03-18T03:20:14.068Z,80.01
2019-03-18T03:22:40.004Z,79.69
2019-03-18T03:25:07.251Z,79.89
2019-03-18T03:27:33.277Z,79.54
2019-03-18T03:29:59.138Z,79.36
2019-03-18T03:32:25.086Z,80.09
2019-03-18T03:34:51.004Z,81.09
2019-03-18T03:37:16.926Z,79.72
2019-03-18T03:39:42.747Z,80.66
2019-03-18T03:42:08.916Z,81.08
2019-03-18T03:44:34.844Z,79.92
2019-03-18T03:47:00.802Z,80.76
2019-03-18T03:49:26.729Z,80.59
2019-03-18T03:51:52.785Z,80.97
2019-03-18T03:54:18.706Z,80.45
2019-03-18T03:56:44.877Z,81.05
2019-03-18T03:59:10.826Z,80.45
2019-03-18T04:01:36.863Z,80.63
2019-03-18T04:04:02.974Z,80.20
2019-03-18T04:06:28.801Z,79.89
2019-03-18T04:08:54.849Z,81.01
2019-03-18T04:11:20.688Z,80.02
2019-03-18T04:13:46.530Z,76.94
2019-03-18T04:16:12.424Z,77.07
2019-03-18T04:18:38.279Z,72.60
2019-03-18T04:21:04.099Z,74.90
2019-03-18T04:23:30.083Z,75.12
2019-03-18T04:25:56.018Z,75.77
2019-03-18T04:28:21.936Z,76.71
2019-03-18T04:30:47.837Z,78.15
2019-03-18T04:33:13.776Z,77.33
2019-03-18T04:35:39.608Z,77.37
2019-03-18T04:38:05.571Z,72.75
2019-03-18T04:40:31.513Z,68.12
2019-03-18T04:42:57.449Z,67.39
2019-03-18T04:45:23.329Z,66.77
2019-03-18T04:47:49.299Z,64.88
2019-03-18T04:50:15.114Z,65.13
2019-03-18T04:52:41.176Z,65.28
2019-03-18T04:55:07.506Z,65.08
2019-03-18T04:57:33.354Z,68.70
2019-03-18T04:59:59.512Z,71.78
2019-03-18T05:02:25.341Z,71.72
2019-03-18T05:04:51.212Z,71.81
2019-03-18T05:07:17.145Z,75.69
2019-03-18T05:09:43.108Z,78.18
2019-03-18T05:12:08.937Z,78.36
2019-03-18T05:14:34.813Z,78.61
2019-03-18T05:17:00.629Z,78.91
2019-03-18T05:19:26.565Z,78.83
2019-03-18T05:21:52.461Z,79.17
2019-03-18T05:24:18.370Z,78.52
2019-03-18T05:26:44.203Z,78.65
2019-03-18T05:29:10.077Z,79.07
2019-03-18T05:31:36.044Z,78.72
2019-03-18T05:34:01.984Z,78.84
2019-03-18T05:36:27.870Z,78.58
2019-03-18T05:38:53.706Z,78.88
2019-03-18T05:41:19.535Z,78.73
2019-03-18T05:43:45.501Z,77.64
2019-03-18T05:46:11.341Z,66.79
2019-03-18T05:48:37.188Z,65.62
2019-03-18T05:51:03.197Z,67.00
2019-03-18T05:53:29.061Z,66.26
2019-03-18T05:55:54.918Z,66.20
2019-03-18T05:58:20.998Z,65.26
2019-03-18T06:00:46.853Z,65.04
2019-03-18T06:03:12.773Z,67.32
2019-03-18T06:05:38.623Z,66.18
2019-03-18T06:08:04.480Z,64.64
2019-03-18T06:10:31.230Z,64.61
2019-03-18T06:12:57.095Z,65.75
2019-03-18T06:15:22.953Z,65.16
2019-03-18T06:17:52.588Z,66.33
2019-03-18T06:20:16.739Z,65.77
2019-03-18T06:22:42.761Z,65.42
2019-03-18T06:25:08.831Z,65.99
2019-03-18T06:27:34.786Z,64.38
2019-03-18T06:30:00.682Z,63.99
2019-03-18T06:32:26.542Z,66.05
2019-03-18T06:34:52.478Z,66.70
2019-03-18T06:37:18.372Z,64.18
2019-03-18T06:39:44.223Z,71.52
2019-03-18T06:42:10.069Z,69.89
2019-03-18T06:44:36.049Z,70.88
2019-03-18T06:47:01.876Z,71.37
2019-03-18T06:49:27.724Z,71.79
2019-03-18T06:51:53.662Z,72.11
2019-03-18T06:54:19.481Z,73.31
2019-03-18T06:56:45.587Z,72.56
2019-03-18T06:59:11.472Z,73.38
2019-03-18T07:01:37.700Z,73.14
2019-03-18T07:04:03.739Z,73.74
2019-03-18T07:06:29.610Z,72.63
2019-03-18T07:08:55.467Z,71.73
2019-03-18T07:11:21.411Z,70.30
2019-03-18T07:13:47.251Z,70.73
2019-03-18T07:16:13.178Z,70.32
2019-03-18T07:18:40.226Z,70.85
2019-03-18T07:21:06.147Z,69.76
2019-03-18T07:23:32.006Z,69.10
2019-03-18T07:25:57.935Z,67.77
2019-03-18T07:28:23.858Z,68.82
2019-03-18T07:30:49.841Z,67.87
2019-03-18T07:33:15.666Z,67.16
2019-03-18T07:35:41.593Z,68.25
2019-03-18T07:38:07.573Z,67.87
2019-03-18T07:40:33.440Z,67.73
2019-03-18T07:42:59.300Z,68.84
2019-03-18T07:45:25.319Z,71.11
2019-03-18T07:47:51.187Z,68.48
2019-03-18T07:50:17.165Z,66.48
2019-03-18T07:52:43.103Z,67.07
2019-03-18T07:55:09.328Z,65.26
2019-03-18T07:57:35.333Z,65.10
2019-03-18T08:00:01.628Z,64.62
2019-03-18T08:02:27.488Z,63.58
2019-03-18T08:04:53.330Z,65.74
2019-03-18T08:07:19.170Z,67.41
2019-03-18T08:09:45.235Z,65.94
2019-03-18T08:12:11.075Z,65.87
2019-03-18T08:14:36.915Z,66.80
2019-03-18T08:17:02.952Z,66.45
2019-03-18T08:19:28.780Z,66.45
2019-03-18T08:21:54.731Z,66.27
2019-03-18T08:24:21.024Z,65.10
2019-03-18T08:26:46.847Z,64.63
2019-03-18T08:29:12.935Z,63.94
2019-03-18T08:31:38.809Z,61.43
2019-03-18T08:34:04.774Z,61.70
2019-03-18T08:36:30.669Z,62.77
2019-03-18T08:38:56.488Z,62.70
2019-03-18T08:41:22.542Z,63.67
2019-03-18T08:43:48.405Z,62.50
2019-03-18T08:46:14.277Z,61.23
2019-03-18T08:48:40.257Z,61.00
2019-03-18T08:51:06.151Z,61.94
2019-03-18T08:53:32.099Z,60.00
2019-03-18T08:55:57.948Z,59.21
2019-03-18T08:58:23.900Z,58.98
2019-03-18T09:00:49.883Z,57.19
2019-03-18T09:03:15.717Z,56.64
2019-03-18T09:05:41.611Z,55.17
2019-03-18T09:08:07.609Z,55.02
2019-03-18T09:10:33.457Z,53.29
2019-03-18T09:12:59.380Z,52.30
2019-03-18T09:15:25.270Z,50.88
2019-03-18T09:17:51.120Z,49.88
2019-03-18T09:20:18.159Z,51.42
2019-03-18T09:22:44.055Z,52.06
2019-03-18T09:25:10.435Z,53.87
2019-03-18T09:27:36.335Z,54.90
2019-03-18T09:30:04.109Z,55.76
2019-03-18T09:32:29.944Z,55.46
2019-03-18T09:34:55.905Z,55.24
2019-03-18T09:37:21.957Z,56.03
2019-03-18T09:39:47.896Z,54.83
2019-03-18T09:42:13.791Z,53.97
2019-03-18T09:44:39.720Z,53.96
2019-03-18T09:47:05.587Z,53.75
2019-03-18T09:49:31.438Z,54.16
2019-03-18T09:51:57.327Z,55.98
2019-03-18T09:54:24.746Z,54.91
2019-03-18T09:56:50.658Z,53.95
2019-03-18T09:59:16.547Z,54.28
2019-03-18T10:01:44.403Z,53.29
2019-03-18T10:04:10.238Z,54.15
2019-03-18T10:06:36.242Z,53.48
2019-03-18T10:09:05.313Z,54.11
2019-03-18T10:11:31.115Z,53.29
2019-03-18T10:13:57.086Z,52.34
2019-03-18T10:16:22.965Z,53.04
2019-03-18T10:18:48.871Z,52.09
2019-03-18T10:21:14.891Z,50.78
2019-03-18T10:23:40.853Z,51.93
2019-03-18T10:26:06.812Z,51.60
2019-03-18T10:28:32.713Z,51.15
2019-03-18T10:30:58.600Z,50.82
2019-03-18T10:33:24.431Z,51.26
2019-03-18T10:35:50.497Z,49.84
2019-03-18T10:38:16.467Z,48.24
2019-03-18T10:40:42.423Z,50.20
2019-03-18T10:43:08.527Z,51.56
2019-03-18T10:45:34.359Z,51.71
2019-03-18T10:48:00.195Z,50.77
2019-03-18T10:50:26.155Z,49.16
2019-03-18T10:52:52.103Z,49.50
2019-03-18T10:55:18.061Z,48.80
2019-03-18T10:57:43.983Z,48.34
2019-03-18T11:00:18.205Z,49.67
2019-03-18T11:02:45.173Z,49.12
2019-03-18T11:05:11.878Z,49.72
2019-03-18T11:07:37.761Z,50.03
2019-03-18T11:10:06.825Z,51.39
2019-03-18T11:12:32.801Z,50.13
2019-03-18T11:14:58.649Z,51.74
2019-03-18T11:17:24.641Z,51.32
2019-03-18T11:19:58.244Z,50.63
2019-03-18T11:22:18.267Z,50.74
2019-03-18T11:24:44.278Z,50.61
2019-03-18T11:27:10.156Z,50.48
2019-03-18T11:29:36.126Z,49.52
2019-03-18T11:32:02.297Z,48.05
2019-03-18T11:34:28.171Z,47.45
2019-03-18T11:36:54.089Z,46.91
2019-03-18T11:39:19.962Z,47.18
2019-03-18T11:41:45.897Z,48.21
2019-03-18T11:44:11.849Z,47.16
2019-03-18T11:46:40.453Z,47.16
2019-03-18T11:49:05.666Z,47.93
2019-03-18T11:51:31.627Z,47.78
2019-03-18T11:53:57.600Z,47.33
2019-03-18T11:56:23.594Z,48.09
2019-03-18T11:58:49.551Z,47.46
2019-03-18T12:01:15.477Z,46.53
2019-03-18T12:03:41.765Z,46.81
2019-03-18T12:06:07.705Z,46.84
2019-03-18T12:08:33.558Z,45.63
2019-03-18T12:10:59.601Z,45.88
2019-03-18T12:13:25.452Z,46.19
2019-03-18T12:15:51.434Z,45.19
2019-03-18T12:18:17.273Z,44.41
2019-03-18T12:20:43.225Z,43.44
2019-03-18T12:23:09.517Z,41.32
2019-03-18T12:25:35.521Z,41.81
2019-03-18T12:28:01.430Z,41.69
2019-03-18T12:30:27.471Z,40.53
2019-03-18T12:32:53.306Z,40.99
2019-03-18T12:35:19.242Z,40.50
2019-03-18T12:37:45.339Z,39.20
2019-03-18T12:40:12.956Z,38.13
2019-03-18T12:42:39.054Z,37.08
2019-03-18T12:45:13.189Z,38.22
2019-03-18T12:47:39.155Z,37.81
2019-03-18T12:50:10.981Z,36.66
2019-03-18T12:52:36.887Z,35.54
2019-03-18T12:55:04.705Z,34.79
2019-03-18T12:57:30.565Z,31.38
2019-03-18T12:59:56.418Z,30.55
2019-03-18T13:02:22.359Z,28.46
2019-03-18T13:04:49.144Z,28.33
2019-03-18T13:07:15.074Z,24.92
2019-03-18T13:09:41.074Z,26.38
2019-03-18T13:12:07.037Z,26.41
2019-03-18T13:14:33.017Z,25.90
2019-03-18T13:16:58.923Z,27.24
2019-03-18T13:19:24.833Z,27.58
2019-03-18T13:21:50.844Z,28.96
2019-03-18T13:24:16.843Z,26.99
2019-03-18T13:26:46.123Z,27.09
2019-03-18T13:29:12.113Z,29.09
2019-03-18T13:31:38.193Z,30.47
2019-03-18T13:34:04.085Z,28.58
2019-03-18T13:36:30.074Z,27.73
2019-03-18T13:38:55.979Z,24.74
2019-03-18T13:41:21.837Z,24.21
2019-03-18T13:43:47.775Z,25.43
2019-03-18T13:46:13.757Z,23.70
2019-03-18T13:48:39.703Z,21.65
2019-03-18T13:51:06.018Z,25.14
2019-03-18T13:53:31.893Z,23.87
2019-03-18T13:55:57.772Z,23.50
2019-03-18T13:58:23.672Z,18.96
2019-03-18T14:00:49.648Z,21.65
2019-03-18T14:03:15.733Z,24.01
2019-03-18T14:05:41.621Z,26.56
2019-03-18T14:08:07.719Z,28.47
2019-03-18T14:10:33.684Z,32.04
2019-03-18T14:12:59.680Z,31.34
2019-03-18T14:15:25.656Z,33.63
2019-03-18T14:17:51.714Z,33.95
2019-03-18T14:20:19.441Z,35.36
2019-03-18T14:22:46.418Z,35.86
2019-03-18T14:25:12.490Z,36.83
2019-03-18T14:27:38.527Z,37.38
2019-03-18T14:30:08.187Z,31.46
2019-03-18T14:32:34.534Z,31.46
2019-03-18T14:35:01.595Z,30.02
2019-03-18T14:37:27.455Z,28.65
2019-03-18T14:39:53.566Z,25.30
2019-03-18T14:42:19.431Z,22.42
2019-03-18T14:44:45.260Z,23.37
2019-03-18T14:47:11.289Z,19.64
2019-03-18T14:49:37.119Z,18.58
2019-03-18T14:52:03.147Z,23.11
2019-03-18T14:54:29.063Z,21.49
2019-03-18T14:56:54.893Z,21.01
2019-03-18T14:59:21.015Z,21.89
2019-03-18T15:01:47.044Z,19.83
2019-03-18T15:04:12.880Z,22.12
2019-03-18T15:06:39.039Z,22.25
2019-03-18T15:09:06.467Z,21.82
2019-03-18T15:11:32.301Z,21.90
2019-03-18T15:13:58.187Z,20.72
2019-03-18T15:16:24.091Z,21.21
2019-03-18T15:18:49.917Z,22.12
2019-03-18T15:21:15.912Z,22.29
2019-03-18T15:23:41.767Z,21.12
2019-03-18T15:26:07.975Z,20.35
2019-03-18T15:28:33.840Z,20.08
2019-03-18T15:30:59.713Z,18.79
2019-03-18T15:33:25.571Z,24.85
2019-03-18T15:35:51.420Z,26.34
2019-03-18T15:38:17.475Z,27.50
2019-03-18T15:40:43.435Z,27.87
2019-03-18T15:43:09.533Z,27.59
2019-03-18T15:45:35.705Z,27.29
2019-03-18T15:48:03.463Z,27.63
2019-03-18T15:50:30.499Z,28.25
2019-03-18T15:52:56.549Z,26.52
2019-03-18T15:55:24.086Z,27.78
2019-03-18T15:57:50.233Z,28.67
2019-03-18T16:00:21.484Z,26.73
2019-03-18T16:02:47.412Z,27.02
2019-03-18T16:05:13.547Z,26.88
2019-03-18T16:07:39.613Z,29.51
2019-03-18T16:10:15.644Z,31.25
2019-03-18T16:12:41.875Z,33.90
2019-03-18T16:15:12.459Z,35.57
2019-03-18T16:17:41.611Z,35.27
2019-03-18T16:20:16.985Z,36.71
2019-03-18T16:22:44.006Z,37.80
2019-03-18T16:25:10.467Z,40.84
2019-03-18T16:27:36.406Z,42.76
2019-03-18T16:30:06.332Z,42.90
2019-03-18T16:32:32.372Z,44.61
2019-03-18T16:34:58.338Z,44.49
2019-03-18T16:37:24.222Z,43.90
2019-03-18T16:39:50.078Z,43.96
2019-03-18T16:42:15.931Z,44.48
2019-03-18T16:44:41.737Z,45.23
2019-03-18T16:47:07.654Z,44.89
2019-03-18T16:49:33.519Z,45.67
2019-03-18T16:51:59.365Z,45.39
2019-03-18T16:54:27.262Z,45.81
2019-03-18T16:56:53.187Z,45.58
2019-03-18T16:59:19.039Z,45.82
2019-03-18T17:01:44.902Z,46.31
2019-03-18T17:04:10.845Z,46.70
2019-03-18T17:06:37.924Z,46.58
2019-03-18T17:09:05.138Z,47.37
2019-03-18T17:11:31.011Z,47.07
2019-03-18T17:13:56.833Z,48.03
2019-03-18T17:16:22.795Z,47.81
2019-03-18T17:18:48.730Z,48.67
2019-03-18T17:21:14.570Z,48.35
2019-03-18T17:23:40.572Z,48.16
2019-03-18T17:26:06.412Z,48.44
2019-03-18T17:28:32.282Z,49.29
2019-03-18T17:30:58.187Z,52.60
2019-03-18T17:33:24.061Z,52.78
2019-03-18T17:35:49.887Z,54.61
2019-03-18T17:38:15.968Z,55.74
2019-03-18T17:40:41.951Z,55.00
2019-03-18T17:43:07.801Z,55.63
2019-03-18T17:45:33.664Z,55.68
2019-03-18T17:47:59.626Z,55.87
2019-03-18T17:50:27.294Z,56.09
2019-03-18T17:53:02.169Z,56.36
2019-03-18T17:55:20.962Z,56.69
2019-03-18T17:57:46.920Z,56.39
2019-03-18T18:00:23.141Z,55.89
2019-03-18T18:02:49.127Z,56.25
2019-03-18T18:05:15.158Z,56.50
2019-03-18T18:07:41.201Z,56.48
2019-03-18T18:10:08.950Z,56.88
2019-03-18T18:12:35.090Z,58.21
2019-03-18T18:15:00.943Z,58.25
2019-03-18T18:17:26.961Z,57.54
2019-03-18T18:19:52.978Z,57.80
2019-03-18T18:22:18.970Z,58.70
2019-03-18T18:24:44.824Z,58.89
2019-03-18T18:27:10.708Z,57.87
2019-03-18T18:29:36.580Z,58.01
2019-03-18T18:32:02.735Z,59.28
2019-03-18T18:34:28.580Z,59.88
2019-03-18T18:36:54.435Z,59.44
2019-03-18T18:39:20.346Z,59.42
2019-03-18T18:41:46.223Z,59.55
2019-03-18T18:44:12.086Z,59.33
2019-03-18T18:46:37.942Z,57.95
2019-03-18T18:49:03.780Z,59.22
2019-03-18T18:51:29.608Z,59.19
2019-03-18T18:53:55.677Z,58.64
2019-03-18T18:56:21.568Z,58.06
2019-03-18T18:58:47.397Z,58.62
2019-03-18T19:01:13.507Z,58.61
2019-03-18T19:03:39.411Z,59.43
2019-03-18T19:06:05.648Z,59.15
2019-03-18T19:08:31.498Z,58.47
2019-03-18T19:10:57.429Z,58.32
2019-03-18T19:13:23.492Z,58.29
2019-03-18T19:15:49.315Z,57.50
2019-03-18T19:18:15.189Z,57.14
2019-03-18T19:20:41.386Z,56.24
2019-03-18T19:23:07.437Z,55.87
2019-03-18T19:25:33.319Z,55.57
2019-03-18T19:27:59.435Z,55.35
2019-03-18T19:30:25.415Z,55.42
2019-03-18T19:32:54.372Z,55.75
2019-03-18T19:35:20.224Z,56.00
2019-03-18T19:37:46.257Z,56.88
2019-03-18T19:40:14.992Z,56.31
2019-03-18T19:42:41.040Z,56.23
2019-03-18T19:45:09.610Z,56.28
2019-03-18T19:47:39.231Z,56.37
2019-03-18T19:50:08.912Z,56.98
2019-03-18T19:52:34.812Z,54.78
2019-03-18T19:55:00.634Z,53.21
2019-03-18T19:57:27.494Z,51.38
2019-03-18T19:59:53.520Z,48.13
2019-03-18T20:02:19.522Z,47.32
2019-03-18T20:04:45.423Z,47.76
2019-03-18T20:07:11.476Z,46.90
2019-03-18T20:09:37.358Z,46.83
2019-03-18T20:12:03.538Z,46.88
2019-03-18T20:14:29.448Z,47.28
2019-03-18T20:16:55.366Z,47.70
2019-03-18T20:19:21.281Z,46.85
2019-03-18T20:21:47.244Z,47.22
2019-03-18T20:24:13.172Z,47.36
2019-03-18T20:26:39.127Z,47.38
2019-03-18T20:29:05.078Z,47.19
2019-03-18T20:31:30.908Z,47.28
2019-03-18T20:33:56.907Z,47.85
2019-03-18T20:36:22.841Z,47.80
2019-03-18T20:38:48.865Z,48.00
2019-03-18T20:41:14.742Z,48.25
2019-03-18T20:43:40.982Z,48.45
2019-03-18T20:46:07.049Z,48.52
2019-03-18T20:48:33.150Z,48.90
2019-03-18T20:50:59.077Z,49.21
2019-03-18T20:53:24.941Z,49.60
2019-03-18T20:55:50.904Z,49.93
2019-03-18T20:58:16.798Z,50.24
2019-03-18T21:00:42.720Z,50.31
2019-03-18T21:03:08.552Z,50.83
2019-03-18T21:05:34.601Z,50.85
2019-03-18T21:08:00.564Z,51.07
2019-03-18T21:10:26.540Z,51.02
2019-03-18T21:12:52.593Z,51.04
2019-03-18T21:15:18.673Z,50.71
2019-03-18T21:17:44.778Z,50.67
2019-03-18T21:20:21.451Z,50.44
2019-03-18T21:22:47.488Z,50.61
2019-03-18T21:25:14.005Z,50.65
2019-03-18T21:27:40.080Z,50.80
2019-03-18T21:30:11.682Z,50.74
2019-03-18T21:32:37.754Z,50.82
2019-03-18T21:35:05.783Z,51.21
2019-03-18T21:37:31.969Z,51.00
2019-03-18T21:39:58.037Z,51.53
2019-03-18T21:42:24.539Z,51.04
2019-03-18T21:44:50.541Z,51.62
2019-03-18T21:47:16.739Z,51.71
2019-03-18T21:49:42.829Z,51.67
2019-03-18T21:52:08.811Z,50.99
2019-03-18T21:54:34.696Z,51.35
2019-03-18T21:57:01.351Z,51.54
2019-03-18T21:59:27.361Z,51.91
2019-03-18T22:01:53.239Z,50.99
2019-03-18T22:04:19.132Z,51.29
2019-03-18T22:06:45.392Z,50.90
2019-03-18T22:09:11.225Z,50.64
2019-03-18T22:11:37.264Z,50.19
2019-03-18T22:14:03.333Z,50.32
2019-03-18T22:16:31.222Z,50.57
2019-03-18T22:18:57.375Z,50.41
2019-03-18T22:21:23.212Z,50.51
2019-03-18T22:23:49.401Z,51.47
2019-03-18T22:26:15.359Z,51.58
2019-03-18T22:28:41.305Z,52.16
2019-03-18T22:31:07.379Z,52.81
2019-03-18T22:33:33.624Z,52.42
2019-03-18T22:35:59.742Z,52.93
2019-03-18T22:38:25.851Z,52.58
2019-03-18T22:40:51.723Z,51.87
2019-03-18T22:43:17.579Z,52.02
2019-03-18T22:45:43.560Z,52.47
2019-03-18T22:48:09.411Z,52.27
2019-03-18T22:50:38.868Z,51.44
2019-03-18T22:53:04.885Z,52.00
2019-03-18T22:55:30.704Z,52.83
2019-03-18T22:57:59.575Z,52.87
2019-03-18T23:00:44.225Z,52.86
2019-03-18T23:03:10.252Z,53.14
2019-03-18T23:05:36.428Z,52.66
2019-03-18T23:08:03.095Z,52.57
2019-03-18T23:10:29.080Z,52.49
2019-03-18T23:12:55.331Z,52.49
2019-03-18T23:15:21.171Z,52.88
2019-03-18T23:17:47.102Z,52.88
2019-03-18T23:20:13.264Z,52.74
2019-03-18T23:22:39.213Z,52.57
2019-03-18T23:25:07.677Z,52.80
2019-03-18T23:27:33.464Z,53.28
2019-03-18T23:29:59.396Z,53.71
2019-03-18T23:32:25.461Z,54.07
2019-03-18T23:34:51.319Z,54.40
2019-03-18T23:37:17.288Z,54.46
2019-03-18T23:39:43.295Z,54.11
2019-03-18T23:42:09.144Z,54.14
2019-03-18T23:44:34.973Z,54.86
2019-03-18T23:47:01.739Z,55.08
2019-03-18T23:49:27.633Z,55.50
2019-03-18T23:51:53.515Z,55.40
2019-03-18T23:54:19.386Z,55.57
2019-03-18T23:56:45.214Z,56.24
2019-03-18T23:59:11.265Z,56.54
